Time;durP1;ratioP1;P1;durP2;ratioP2;P2;SDS_P1;SDS_P2;PMS_P1;PMS_P2;Temp;Humidity;BMP_temperature;BMP_pressure;BME280_temperature;BME280_humidity;BME280_pressure;Samples;Min_cycle;Max_cycle;Signal;HPM_P1;HPM_P2
2023/08/12 00:00:48;;;;;;;10.15;5.28;;;;;;;;;;5044978;28;20060;-70
2023/08/12 00:03:13;;;;;;;11.05;4.97;;;;;;;;;;5044326;28;20032;-70
2023/08/12 00:05:39;;;;;;;9.27;4.70;;;;;;;;;;5044567;28;20474;-70
2023/08/12 00:08:05;;;;;;;8.45;5.20;;;;;;;;;;5042680;28;20033;-70
2023/08/12 00:10:31;;;;;;;10.15;4.88;;;;;;;;;;5044551;28;20087;-69
2023/08/12 00:12:57;;;;;;;9.60;5.22;;;;;;;;;;5043947;28;20043;-69
2023/08/12 00:15:22;;;;;;;9.80;4.93;;;;;;;;;;5044399;28;20111;-70
2023/08/12 00:17:48;;;;;;;8.18;4.82;;;;;;;;;;5044672;28;20468;-69
2023/08/12 00:20:13;;;;;;;8.80;5.40;;;;;;;;;;5042002;28;20120;-70
2023/08/12 00:22:39;;;;;;;11.77;4.97;;;;;;;;;;5044794;28;20040;-69
2023/08/12 00:25:06;;;;;;;13.55;5.30;;;;;;;;;;5045828;28;20052;-70
2023/08/12 00:27:31;;;;;;;11.73;5.03;;;;;;;;;;5048844;28;20017;-69
2023/08/12 00:29:56;;;;;;;11.70;5.50;;;;;;;;;;5049713;28;20064;-70
2023/08/12 00:32:22;;;;;;;7.30;5.30;;;;;;;;;;5047032;28;20068;-70
2023/08/12 00:34:47;;;;;;;13.45;5.32;;;;;;;;;;5048357;28;20033;-69
2023/08/12 00:37:12;;;;;;;13.45;5.80;;;;;;;;;;5047139;28;20033;-69
2023/08/12 00:39:38;;;;;;;13.23;5.80;;;;;;;;;;5051686;28;20032;-70
2023/08/12 00:42:03;;;;;;;9.10;5.95;;;;;;;;;;5057699;28;20060;-70
2023/08/12 00:44:29;;;;;;;12.75;5.88;;;;;;;;;;5047665;28;20045;-70
2023/08/12 00:46:55;;;;;;;10.25;5.70;;;;;;;;;;5047681;28;20497;-70
2023/08/12 00:49:21;;;;;;;10.85;6.20;;;;;;;;;;5047870;28;20716;-69
2023/08/12 00:51:49;;;;;;;11.15;6.30;;;;;;;;;;5048190;28;20036;-69
2023/08/12 00:54:16;;;;;;;16.35;5.75;;;;;;;;;;5047422;28;20111;-70
2023/08/12 00:56:42;;;;;;;11.48;6.97;;;;;;;;;;5046197;28;20037;-70
2023/08/12 00:59:09;;;;;;;13.40;6.47;;;;;;;;;;5047950;28;20049;-70
2023/08/12 01:01:35;;;;;;;10.70;6.38;;;;;;;;;;5047261;28;20116;-70
2023/08/12 01:04:00;;;;;;;12.20;6.00;;;;;;;;;;5048069;28;20110;-69
2023/08/12 01:06:26;;;;;;;12.25;6.22;;;;;;;;;;5048018;28;20083;-70
2023/08/12 01:08:51;;;;;;;10.73;6.15;;;;;;;;;;5047698;28;20126;-69
2023/08/12 01:11:39;;;;;;;13.30;6.28;;;;;;;;;;5046804;28;20048;-70
2023/08/12 01:14:13;;;;;;;10.57;5.80;;;;;;;;;;5047093;28;20033;-70
2023/08/12 01:16:43;;;;;;;12.82;5.95;;;;;;;;;;5045497;28;20040;-69
2023/08/12 01:19:13;;;;;;;11.88;6.22;;;;;;;;;;5027392;28;20053;-70
2023/08/12 01:21:43;;;;;;;11.32;5.82;;;;;;;;;;5013815;28;20033;-69
2023/08/12 01:24:09;;;;;;;11.88;6.05;;;;;;;;;;5042595;28;20506;-70
2023/08/12 01:26:34;;;;;;;13.68;6.70;;;;;;;;;;5027057;28;20525;-70
2023/08/12 01:29:00;;;;;;;12.73;6.25;;;;;;;;;;5035498;28;20049;-69
2023/08/12 01:31:36;;;;;;;11.68;6.00;;;;;;;;;;5047147;28;20043;-70
2023/08/12 01:34:09;;;;;;;11.38;5.60;;;;;;;;;;5045296;28;20027;-69
2023/08/12 01:36:36;;;;;;;10.13;5.88;;;;;;;;;;5048081;28;20028;-70
2023/08/12 01:39:01;;;;;;;11.70;5.60;;;;;;;;;;5046549;28;20689;-69
2023/08/12 01:41:27;;;;;;;12.10;5.68;;;;;;;;;;5032632;28;20045;-69
2023/08/12 01:43:53;;;;;;;10.40;5.80;;;;;;;;;;5046985;28;20037;-69
2023/08/12 01:46:18;;;;;;;10.88;6.03;;;;;;;;;;5047021;28;20041;-69
2023/08/12 01:48:43;;;;;;;11.02;5.80;;;;;;;;;;5047469;28;20025;-69
2023/08/12 01:51:09;;;;;;;12.55;6.43;;;;;;;;;;5048732;28;20041;-69
2023/08/12 01:53:34;;;;;;;14.18;6.85;;;;;;;;;;5051238;28;20033;-69
2023/08/12 01:56:00;;;;;;;16.45;6.18;;;;;;;;;;5048552;28;20128;-69
2023/08/12 01:58:26;;;;;;;14.32;6.25;;;;;;;;;;5046685;28;20041;-69
2023/08/12 02:00:52;;;;;;;11.70;6.22;;;;;;;;;;5046149;28;20056;-69
2023/08/12 02:03:17;;;;;;;14.68;6.47;;;;;;;;;;5046927;28;20033;-69
2023/08/12 02:05:43;;;;;;;10.88;5.75;;;;;;;;;;5028571;28;20403;-69
2023/08/12 02:08:08;;;;;;;12.18;6.20;;;;;;;;;;5025795;28;20037;-69
2023/08/12 02:10:34;;;;;;;12.32;6.40;;;;;;;;;;5031821;28;20644;-69
2023/08/12 02:12:59;;;;;;;12.95;6.60;;;;;;;;;;5045708;28;20059;-69
2023/08/12 02:15:25;;;;;;;13.98;6.43;;;;;;;;;;5046885;28;20058;-69
2023/08/12 02:17:50;;;;;;;13.40;6.80;;;;;;;;;;5042484;28;20502;-69
2023/08/12 02:20:15;;;;;;;9.98;6.60;;;;;;;;;;5032021;28;20034;-69
2023/08/12 02:22:41;;;;;;;10.82;6.10;;;;;;;;;;5026288;28;20033;-69
2023/08/12 02:25:07;;;;;;;11.35;6.32;;;;;;;;;;5021916;28;20381;-69
2023/08/12 02:27:32;;;;;;;14.18;6.90;;;;;;;;;;5023082;28;20879;-69
2023/08/12 02:29:57;;;;;;;11.65;6.60;;;;;;;;;;5041836;28;20522;-69
2023/08/12 02:32:23;;;;;;;12.15;6.63;;;;;;;;;;5044544;28;20071;-70
2023/08/12 02:34:48;;;;;;;11.20;6.40;;;;;;;;;;5037534;28;20083;-69
2023/08/12 02:37:13;;;;;;;9.88;5.97;;;;;;;;;;5025766;28;20036;-70
2023/08/12 02:39:39;;;;;;;13.35;6.05;;;;;;;;;;5022199;28;20037;-70
2023/08/12 02:42:05;;;;;;;11.07;6.28;;;;;;;;;;5016932;28;20041;-69
2023/08/12 02:44:30;;;;;;;13.18;5.70;;;;;;;;;;5022890;28;20077;-70
2023/08/12 02:46:55;;;;;;;9.73;5.82;;;;;;;;;;5029897;28;20935;-69
2023/08/12 02:49:21;;;;;;;9.50;5.00;;;;;;;;;;5025854;28;20034;-69
2023/08/12 02:51:46;;;;;;;10.55;4.75;;;;;;;;;;5025328;28;20037;-68
2023/08/12 02:54:11;;;;;;;7.90;4.68;;;;;;;;;;5026318;28;20029;-69
2023/08/12 02:56:37;;;;;;;9.00;5.05;;;;;;;;;;5025329;28;20581;-70
2023/08/12 02:59:02;;;;;;;8.25;5.00;;;;;;;;;;5036074;28;20098;-69
2023/08/12 03:01:27;;;;;;;8.90;4.38;;;;;;;;;;5045008;28;20049;-70
2023/08/12 03:03:53;;;;;;;8.68;4.35;;;;;;;;;;5048858;28;20446;-70
2023/08/12 03:06:18;;;;;;;8.35;4.13;;;;;;;;;;5045764;28;20028;-69
2023/08/12 03:08:43;;;;;;;7.72;3.83;;;;;;;;;;5044733;28;20790;-70
2023/08/12 03:11:09;;;;;;;8.70;3.40;;;;;;;;;;5032731;28;20041;-69
2023/08/12 03:13:34;;;;;;;7.13;3.63;;;;;;;;;;5031543;28;20037;-69
2023/08/12 03:16:00;;;;;;;8.13;3.67;;;;;;;;;;5045451;28;20024;-69
2023/08/12 03:18:25;;;;;;;5.03;3.30;;;;;;;;;;5046283;28;20013;-69
2023/08/12 03:20:50;;;;;;;5.05;3.40;;;;;;;;;;5020653;28;20427;-69
2023/08/12 03:23:16;;;;;;;6.07;3.47;;;;;;;;;;5021971;28;20548;-69
2023/08/12 03:25:41;;;;;;;5.05;3.30;;;;;;;;;;5024808;28;20041;-70
2023/08/12 03:28:07;;;;;;;3.78;2.65;;;;;;;;;;5005511;28;20439;-69
2023/08/12 03:30:32;;;;;;;4.95;3.00;;;;;;;;;;5017815;28;20496;-69
2023/08/12 03:32:57;;;;;;;7.50;3.00;;;;;;;;;;5020199;28;20086;-70
2023/08/12 03:35:23;;;;;;;7.03;3.25;;;;;;;;;;5029282;28;20040;-70
2023/08/12 03:37:48;;;;;;;3.22;2.50;;;;;;;;;;5037620;28;20032;-69
2023/08/12 03:40:13;;;;;;;3.42;2.50;;;;;;;;;;5052083;28;20037;-69
2023/08/12 03:42:39;;;;;;;3.42;2.45;;;;;;;;;;5045376;28;20028;-70
2023/08/12 03:45:06;;;;;;;4.22;2.58;;;;;;;;;;5039775;28;20025;-69
2023/08/12 03:47:31;;;;;;;5.35;2.72;;;;;;;;;;5036315;28;20041;-69
2023/08/12 03:49:56;;;;;;;5.65;2.90;;;;;;;;;;5045089;28;20045;-69
2023/08/12 03:52:22;;;;;;;3.53;2.70;;;;;;;;;;5038645;28;20033;-69
2023/08/12 03:54:47;;;;;;;4.55;3.10;;;;;;;;;;5024756;28;20486;-68
2023/08/12 03:57:13;;;;;;;5.32;3.15;;;;;;;;;;5023584;28;20029;-69
2023/08/12 03:59:38;;;;;;;3.20;2.42;;;;;;;;;;5024204;28;20041;-69
2023/08/12 04:02:06;;;;;;;3.42;2.63;;;;;;;;;;5024641;28;20120;-70
2023/08/12 04:04:31;;;;;;;6.68;3.05;;;;;;;;;;5023735;28;20033;-70
2023/08/12 04:06:57;;;;;;;3.90;2.88;;;;;;;;;;5024657;28;20029;-69
2023/08/12 04:09:23;;;;;;;4.88;3.20;;;;;;;;;;5023509;28;20120;-68
2023/08/12 04:11:48;;;;;;;4.40;3.00;;;;;;;;;;5023778;28;20033;-70
2023/08/12 04:14:14;;;;;;;5.63;3.08;;;;;;;;;;5024031;28;20041;-70
2023/08/12 04:16:40;;;;;;;4.47;3.08;;;;;;;;;;5024469;28;20037;-69
2023/08/12 04:19:05;;;;;;;4.22;2.78;;;;;;;;;;5023197;28;20534;-69
2023/08/12 04:21:30;;;;;;;6.28;2.97;;;;;;;;;;5023387;28;20026;-69
2023/08/12 04:23:56;;;;;;;4.55;2.80;;;;;;;;;;5042105;28;20061;-69
2023/08/12 04:26:21;;;;;;;5.78;3.20;;;;;;;;;;5043884;28;20033;-70
2023/08/12 04:28:46;;;;;;;4.10;3.17;;;;;;;;;;5043332;28;20091;-69
2023/08/12 04:31:12;;;;;;;6.53;2.58;;;;;;;;;;5043727;28;20416;-69
2023/08/12 04:33:37;;;;;;;7.85;3.30;;;;;;;;;;5044744;28;20036;-70
2023/08/12 04:36:03;;;;;;;5.65;3.30;;;;;;;;;;5044347;28;20041;-69
2023/08/12 04:38:28;;;;;;;5.75;3.35;;;;;;;;;;5034182;28;20030;-69
2023/08/12 04:40:54;;;;;;;4.22;3.20;;;;;;;;;;5041144;28;20037;-69
2023/08/12 04:43:20;;;;;;;8.25;3.40;;;;;;;;;;5046616;28;20036;-69
2023/08/12 04:45:46;;;;;;;4.93;3.00;;;;;;;;;;5043785;28;20029;-69
2023/08/12 04:48:12;;;;;;;5.13;3.50;;;;;;;;;;5027847;28;20042;-69
2023/08/12 04:50:38;;;;;;;5.75;3.38;;;;;;;;;;5024331;28;20072;-69
2023/08/12 04:53:05;;;;;;;7.90;4.10;;;;;;;;;;5025589;28;20121;-70
2023/08/12 04:55:30;;;;;;;4.78;3.28;;;;;;;;;;5022438;28;20072;-70
2023/08/12 04:57:56;;;;;;;6.43;3.70;;;;;;;;;;5025632;28;20061;-69
2023/08/12 05:00:22;;;;;;;7.40;3.75;;;;;;;;;;5043948;28;20537;-69
2023/08/12 05:02:48;;;;;;;7.18;3.55;;;;;;;;;;5043716;28;20099;-69
2023/08/12 05:05:13;;;;;;;6.28;3.72;;;;;;;;;;5043751;28;20045;-69
2023/08/12 05:07:39;;;;;;;6.72;3.65;;;;;;;;;;5044147;28;20033;-69
2023/08/12 05:10:05;;;;;;;8.98;4.03;;;;;;;;;;5042936;28;20021;-70
2023/08/12 05:12:30;;;;;;;6.60;3.88;;;;;;;;;;5044570;28;20044;-69
2023/08/12 05:14:56;;;;;;;8.32;3.72;;;;;;;;;;5024232;28;20033;-70
2023/08/12 05:17:21;;;;;;;7.65;3.83;;;;;;;;;;5027360;28;20047;-70
2023/08/12 05:19:47;;;;;;;7.63;3.83;;;;;;;;;;5014257;28;20044;-69
2023/08/12 05:22:12;;;;;;;7.07;4.18;;;;;;;;;;5042126;28;20056;-69
2023/08/12 05:24:37;;;;;;;6.15;3.40;;;;;;;;;;5027617;28;20033;-69
2023/08/12 05:27:04;;;;;;;7.85;4.30;;;;;;;;;;5027468;28;20037;-69
2023/08/12 05:29:30;;;;;;;6.43;3.92;;;;;;;;;;5025056;28;20537;-69
2023/08/12 05:31:55;;;;;;;7.20;4.25;;;;;;;;;;5037127;28;20042;-70
2023/08/12 05:34:21;;;;;;;6.95;3.85;;;;;;;;;;5026933;28;20029;-69
2023/08/12 05:36:46;;;;;;;6.50;3.63;;;;;;;;;;5026719;28;20029;-69
2023/08/12 05:39:11;;;;;;;9.35;4.03;;;;;;;;;;5060168;28;20024;-69
2023/08/12 05:41:37;;;;;;;6.80;3.40;;;;;;;;;;5046769;28;20037;-69
2023/08/12 05:44:03;;;;;;;7.47;3.50;;;;;;;;;;5047058;28;20047;-69
2023/08/12 05:46:28;;;;;;;10.18;3.58;;;;;;;;;;5028523;28;20059;-68
2023/08/12 05:48:54;;;;;;;5.03;3.10;;;;;;;;;;5046304;28;20567;-69
2023/08/12 05:51:19;;;;;;;7.35;3.10;;;;;;;;;;5047291;28;20040;-70
2023/08/12 05:53:44;;;;;;;4.40;2.80;;;;;;;;;;5039389;28;20033;-70
2023/08/12 05:56:10;;;;;;;6.70;3.47;;;;;;;;;;5039188;28;20060;-69
2023/08/12 05:58:35;;;;;;;6.85;2.78;;;;;;;;;;5045791;28;20041;-70
2023/08/12 06:01:00;;;;;;;5.60;2.85;;;;;;;;;;5046323;28;20025;-69
2023/08/12 06:03:26;;;;;;;5.45;2.75;;;;;;;;;;5047229;28;20053;-70
2023/08/12 06:05:51;;;;;;;4.25;2.40;;;;;;;;;;5035589;28;20067;-70
2023/08/12 06:08:17;;;;;;;6.80;2.80;;;;;;;;;;5021455;28;20045;-68
2023/08/12 06:10:43;;;;;;;5.20;2.33;;;;;;;;;;5023546;28;20502;-69
2023/08/12 06:13:08;;;;;;;4.60;2.72;;;;;;;;;;5027184;28;20095;-70
2023/08/12 06:15:33;;;;;;;7.85;3.42;;;;;;;;;;5024757;28;20037;-69
2023/08/12 06:18:02;;;;;;;5.10;2.42;;;;;;;;;;5026519;28;20044;-69
2023/08/12 06:20:28;;;;;;;5.63;2.20;;;;;;;;;;5021487;28;20046;-70
2023/08/12 06:22:53;;;;;;;1.63;1.00;;;;;;;;;;5017254;28;20068;-69
2023/08/12 06:25:19;;;;;;;1.20;0.90;;;;;;;;;;5009405;28;20167;-70
2023/08/12 06:27:45;;;;;;;1.02;0.60;;;;;;;;;;5000376;28;20861;-69
2023/08/12 06:30:12;;;;;;;2.58;0.70;;;;;;;;;;5011120;28;20061;-70
2023/08/12 06:32:38;;;;;;;1.80;0.55;;;;;;;;;;5037975;28;20042;-70
2023/08/12 06:35:04;;;;;;;0.60;0.55;;;;;;;;;;5022099;28;20056;-70
2023/08/12 06:37:29;;;;;;;0.85;0.70;;;;;;;;;;5027805;28;20037;-70
2023/08/12 06:39:55;;;;;;;0.70;0.70;;;;;;;;;;5024962;28;20028;-70
2023/08/12 06:42:21;;;;;;;1.00;0.70;;;;;;;;;;5023701;28;20082;-69
2023/08/12 06:44:46;;;;;;;0.80;0.70;;;;;;;;;;5042284;28;20720;-70
2023/08/12 06:47:11;;;;;;;0.95;0.80;;;;;;;;;;5045654;28;20041;-69
2023/08/12 06:49:37;;;;;;;1.40;0.80;;;;;;;;;;5043532;28;20041;-68
2023/08/12 06:52:02;;;;;;;1.05;0.90;;;;;;;;;;5041136;28;20123;-69
2023/08/12 06:54:28;;;;;;;0.93;0.82;;;;;;;;;;5043624;28;20696;-70
2023/08/12 06:56:53;;;;;;;1.35;0.80;;;;;;;;;;5023002;28;20172;-70
2023/08/12 06:59:18;;;;;;;2.25;1.15;;;;;;;;;;5030666;28;20118;-70
2023/08/12 07:01:44;;;;;;;1.00;0.85;;;;;;;;;;5028785;28;20079;-69
2023/08/12 07:04:09;;;;;;;1.42;0.75;;;;;;;;;;5028815;28;20041;-70
2023/08/12 07:06:34;;;;;;;1.00;0.90;;;;;;;;;;5045535;28;20032;-70
2023/08/12 07:09:00;;;;;;;0.90;0.80;;;;;;;;;;5041082;28;20041;-70
2023/08/12 07:11:25;;;;;;;1.30;0.82;;;;;;;;;;5043209;28;20076;-70
2023/08/12 07:13:51;;;;;;;1.42;0.88;;;;;;;;;;5043405;28;20036;-70
2023/08/12 07:16:16;;;;;;;0.70;0.70;;;;;;;;;;5044432;28;20502;-69
2023/08/12 07:18:41;;;;;;;1.10;0.90;;;;;;;;;;5052817;28;20032;-70
2023/08/12 07:21:07;;;;;;;0.80;0.80;;;;;;;;;;5048616;28;20533;-69
2023/08/12 07:23:32;;;;;;;5.00;1.10;;;;;;;;;;5043101;28;20144;-70
2023/08/12 07:25:57;;;;;;;1.58;1.00;;;;;;;;;;5049271;28;20040;-70
2023/08/12 07:28:23;;;;;;;2.72;0.93;;;;;;;;;;5044957;28;20041;-69
2023/08/12 07:30:49;;;;;;;1.10;1.00;;;;;;;;;;5049983;28;20052;-69
2023/08/12 07:33:16;;;;;;;0.95;0.88;;;;;;;;;;5048640;28;20144;-69
2023/08/12 07:35:41;;;;;;;4.03;1.17;;;;;;;;;;5048256;28;20132;-70
2023/08/12 07:38:07;;;;;;;2.85;1.20;;;;;;;;;;5047910;28;20052;-69
2023/08/12 07:40:32;;;;;;;2.38;1.30;;;;;;;;;;5039192;28;20052;-69
2023/08/12 07:42:58;;;;;;;2.15;1.23;;;;;;;;;;5044212;28;20436;-69
2023/08/12 07:45:23;;;;;;;3.08;1.25;;;;;;;;;;5043906;28;20025;-70
2023/08/12 07:47:49;;;;;;;4.97;1.35;;;;;;;;;;5043014;28;20043;-70
2023/08/12 07:50:15;;;;;;;2.85;1.40;;;;;;;;;;5042535;28;20426;-68
2023/08/12 07:52:40;;;;;;;4.70;1.30;;;;;;;;;;5037585;28;20033;-70
2023/08/12 07:55:06;;;;;;;4.28;1.63;;;;;;;;;;5040453;28;20044;-70
2023/08/12 07:57:32;;;;;;;7.07;3.38;;;;;;;;;;5039401;28;20040;-70
2023/08/12 07:59:57;;;;;;;6.95;3.35;;;;;;;;;;5041192;28;20037;-70
2023/08/12 08:02:22;;;;;;;7.13;3.38;;;;;;;;;;5042829;28;20044;-70
2023/08/12 08:04:49;;;;;;;7.55;3.58;;;;;;;;;;5038067;28;20052;-69
2023/08/12 08:07:16;;;;;;;12.07;4.47;;;;;;;;;;5042030;28;20048;-70
2023/08/12 08:09:42;;;;;;;10.57;3.90;;;;;;;;;;5039489;28;20087;-70
2023/08/12 08:12:08;;;;;;;11.82;3.88;;;;;;;;;;5043230;28;20498;-68
2023/08/12 08:14:34;;;;;;;8.95;4.05;;;;;;;;;;5039579;28;20063;-70
2023/08/12 08:16:59;;;;;;;9.65;4.20;;;;;;;;;;5041648;28;20665;-68
2023/08/12 08:19:24;;;;;;;8.38;4.28;;;;;;;;;;5042443;28;20037;-70
2023/08/12 08:21:50;;;;;;;8.20;4.28;;;;;;;;;;5043702;28;20418;-69
2023/08/12 08:24:15;;;;;;;11.15;4.82;;;;;;;;;;5044653;28;20017;-70
2023/08/12 08:26:41;;;;;;;12.43;5.15;;;;;;;;;;5040117;28;20101;-68
2023/08/12 08:29:06;;;;;;;9.90;4.88;;;;;;;;;;5038616;28;20591;-69
2023/08/12 08:31:32;;;;;;;6.72;3.60;;;;;;;;;;5037073;28;20497;-70
2023/08/12 08:33:57;;;;;;;7.30;3.60;;;;;;;;;;5039097;28;20065;-69
2023/08/12 08:36:23;;;;;;;9.32;4.32;;;;;;;;;;5040031;28;20021;-68
2023/08/12 08:38:48;;;;;;;8.50;3.85;;;;;;;;;;5038937;28;20041;-67
2023/08/12 08:41:16;;;;;;;10.18;4.55;;;;;;;;;;5041279;28;20091;-70
2023/08/12 08:43:44;;;;;;;12.23;4.80;;;;;;;;;;5039284;28;20067;-69
2023/08/12 08:46:10;;;;;;;11.48;6.00;;;;;;;;;;5046625;28;20029;-69
2023/08/12 08:48:37;;;;;;;14.05;5.75;;;;;;;;;;5043864;28;20072;-69
2023/08/12 08:51:03;;;;;;;11.20;4.85;;;;;;;;;;5046741;28;20128;-69
2023/08/12 08:53:29;;;;;;;11.15;5.47;;;;;;;;;;5039113;28;20040;-68
2023/08/12 08:55:55;;;;;;;11.75;5.90;;;;;;;;;;5046263;28;20048;-68
2023/08/12 08:58:21;;;;;;;10.05;4.72;;;;;;;;;;5045544;28;20078;-68
2023/08/12 09:00:46;;;;;;;9.77;4.28;;;;;;;;;;5049650;28;20029;-68
2023/08/12 09:03:13;;;;;;;9.45;3.47;;;;;;;;;;5049062;28;20107;-69
2023/08/12 09:05:40;;;;;;;5.78;2.80;;;;;;;;;;5045171;28;20043;-70
2023/08/12 09:08:10;;;;;;;4.75;2.05;;;;;;;;;;5033178;28;20049;-69
2023/08/12 09:10:37;;;;;;;4.63;1.98;;;;;;;;;;5047300;28;20055;-70
2023/08/12 09:13:03;;;;;;;3.55;1.85;;;;;;;;;;5047353;28;20028;-69
2023/08/12 09:15:28;;;;;;;5.93;2.00;;;;;;;;;;5047402;28;20426;-70
2023/08/12 09:17:53;;;;;;;5.05;2.17;;;;;;;;;;5045421;28;20033;-70
2023/08/12 09:20:19;;;;;;;7.63;2.72;;;;;;;;;;5038286;28;20033;-69
2023/08/12 09:22:44;;;;;;;4.47;2.25;;;;;;;;;;5043259;28;20052;-70
2023/08/12 09:25:10;;;;;;;4.70;2.00;;;;;;;;;;5046832;28;20409;-69
2023/08/12 09:27:37;;;;;;;3.20;1.95;;;;;;;;;;5048119;28;20025;-70
2023/08/12 09:30:03;;;;;;;5.70;2.20;;;;;;;;;;5047038;28;20099;-70
2023/08/12 09:32:29;;;;;;;8.15;2.50;;;;;;;;;;5046662;28;20098;-69
2023/08/12 09:34:55;;;;;;;3.35;1.80;;;;;;;;;;5047285;28;20033;-69
2023/08/12 09:37:23;;;;;;;3.72;1.45;;;;;;;;;;5046895;28;20031;-70
2023/08/12 09:39:49;;;;;;;6.18;1.63;;;;;;;;;;5046986;28;20148;-69
2023/08/12 09:42:15;;;;;;;4.15;1.40;;;;;;;;;;5047212;28;20520;-70
2023/08/12 09:44:41;;;;;;;3.53;1.35;;;;;;;;;;5045160;28;20033;-69
2023/08/12 09:47:10;;;;;;;4.97;1.35;;;;;;;;;;5041164;28;20043;-69
2023/08/12 09:49:37;;;;;;;4.47;1.55;;;;;;;;;;5044323;28;20476;-69
2023/08/12 09:52:04;;;;;;;3.65;1.55;;;;;;;;;;5031974;28;20044;-69
2023/08/12 09:54:33;;;;;;;4.65;1.23;;;;;;;;;;5036362;28;20033;-69
2023/08/12 09:57:00;;;;;;;3.95;1.58;;;;;;;;;;5038806;28;20113;-69
2023/08/12 09:59:31;;;;;;;4.60;1.52;;;;;;;;;;5046182;28;20720;-69
2023/08/12 10:01:57;;;;;;;3.25;1.48;;;;;;;;;;5030882;28;20057;-68
2023/08/12 10:04:26;;;;;;;6.05;1.73;;;;;;;;;;5036501;28;20048;-69
2023/08/12 10:06:52;;;;;;;4.45;1.50;;;;;;;;;;5039159;28;20052;-69
2023/08/12 10:09:18;;;;;;;5.78;1.50;;;;;;;;;;5040628;28;20718;-68
2023/08/12 10:11:44;;;;;;;5.43;1.75;;;;;;;;;;5029210;28;20048;-70
2023/08/12 10:14:10;;;;;;;6.38;1.67;;;;;;;;;;5027007;28;20040;-68
2023/08/12 10:16:36;;;;;;;4.15;1.52;;;;;;;;;;5036050;28;20044;-69
2023/08/12 10:19:04;;;;;;;3.00;1.63;;;;;;;;;;5046864;28;20025;-69
2023/08/12 10:21:29;;;;;;;3.22;1.80;;;;;;;;;;5031436;28;20079;-69
2023/08/12 10:23:58;;;;;;;6.97;1.90;;;;;;;;;;5037498;28;20033;-69
2023/08/12 10:26:24;;;;;;;3.78;1.65;;;;;;;;;;5042268;28;20044;-69
2023/08/12 10:28:50;;;;;;;3.80;1.88;;;;;;;;;;5039843;28;20029;-69
2023/08/12 10:31:16;;;;;;;2.78;1.52;;;;;;;;;;5041524;28;20134;-69
2023/08/12 10:33:42;;;;;;;3.75;2.05;;;;;;;;;;5040373;28;20136;-69
2023/08/12 10:36:09;;;;;;;4.15;1.60;;;;;;;;;;5036746;28;20076;-69
2023/08/12 10:38:34;;;;;;;4.00;1.92;;;;;;;;;;5040421;28;20742;-70
2023/08/12 10:41:18;;;;;;;5.03;1.42;;;;;;;;;;5039068;28;20128;-70
2023/08/12 10:44:03;;;;;;;4.35;1.40;;;;;;;;;;5042020;28;20037;-69
2023/08/12 10:46:33;;;;;;;17.63;13.23;;;;;;;;;;5045557;28;20059;-70
2023/08/12 10:49:08;;;;;;;5.60;1.60;;;;;;;;;;5045218;28;20021;-70
2023/08/12 10:51:45;;;;;;;3.85;1.90;;;;;;;;;;5044052;28;20140;-70
2023/08/12 10:54:19;;;;;;;3.88;1.83;;;;;;;;;;5020974;28;20033;-70
2023/08/12 10:57:06;;;;;;;4.15;1.90;;;;;;;;;;5024500;28;20041;-70
2023/08/12 10:59:44;;;;;;;3.10;2.05;;;;;;;;;;5023808;28;20124;-70
2023/08/12 11:02:21;;;;;;;5.53;2.42;;;;;;;;;;5036035;28;20040;-70
2023/08/12 11:05:09;;;;;;;4.47;2.80;;;;;;;;;;5044131;28;20033;-70
2023/08/12 11:07:38;;;;;;;6.50;2.90;;;;;;;;;;5043894;28;20041;-70
2023/08/12 11:10:06;;;;;;;5.70;2.85;;;;;;;;;;5045083;28;20075;-69
2023/08/12 11:12:34;;;;;;;6.82;3.30;;;;;;;;;;5052000;28;20041;-70
2023/08/12 11:15:00;;;;;;;5.63;3.00;;;;;;;;;;5044240;28;20056;-70
2023/08/12 11:17:32;;;;;;;4.10;2.80;;;;;;;;;;5044434;28;20029;-69
2023/08/12 11:19:58;;;;;;;5.10;2.63;;;;;;;;;;5038049;28;20033;-70
2023/08/12 11:22:24;;;;;;;8.73;2.85;;;;;;;;;;5037622;28;20510;-70
2023/08/12 11:24:51;;;;;;;4.38;2.55;;;;;;;;;;5044094;28;20028;-69
2023/08/12 11:27:17;;;;;;;3.30;2.10;;;;;;;;;;5043239;28;20021;-69
2023/08/12 11:29:43;;;;;;;4.65;2.58;;;;;;;;;;5044435;28;20127;-70
2023/08/12 11:32:09;;;;;;;3.13;2.60;;;;;;;;;;5040096;28;20109;-69
2023/08/12 11:34:34;;;;;;;4.25;2.60;;;;;;;;;;5035733;28;20068;-70
2023/08/12 11:37:00;;;;;;;3.58;2.53;;;;;;;;;;5044399;28;20023;-69
2023/08/12 11:39:26;;;;;;;7.60;2.70;;;;;;;;;;5057699;28;20770;-70
2023/08/12 11:41:52;;;;;;;3.58;2.10;;;;;;;;;;5044117;28;20033;-70
2023/08/12 11:44:21;;;;;;;3.05;2.10;;;;;;;;;;5044448;28;20481;-70
2023/08/12 11:46:47;;;;;;;3.42;2.30;;;;;;;;;;5043623;28;20040;-70
2023/08/12 11:49:12;;;;;;;4.32;2.13;;;;;;;;;;5048094;28;20036;-70
2023/08/12 11:51:38;;;;;;;4.25;2.40;;;;;;;;;;5051545;28;20020;-70
2023/08/12 11:54:04;;;;;;;5.40;2.13;;;;;;;;;;5045523;28;20040;-70
2023/08/12 11:56:30;;;;;;;3.63;2.00;;;;;;;;;;5044097;28;20538;-70
2023/08/12 11:58:55;;;;;;;4.30;1.77;;;;;;;;;;5043701;28;20040;-70
2023/08/12 12:01:22;;;;;;;3.15;1.95;;;;;;;;;;5044619;28;20453;-70
2023/08/12 12:03:53;;;;;;;6.85;3.30;;;;;;;;;;5043476;28;20032;-69
2023/08/12 12:06:29;;;;;;;3.35;1.52;;;;;;;;;;5043569;28;20025;-70
2023/08/12 12:08:55;;;;;;;3.78;1.88;;;;;;;;;;5048368;28;20037;-70
2023/08/12 12:11:20;;;;;;;4.00;1.92;;;;;;;;;;5047420;28;20085;-69
2023/08/12 12:13:47;;;;;;;2.97;1.83;;;;;;;;;;5043713;28;20044;-70
2023/08/12 12:16:12;;;;;;;3.63;1.80;;;;;;;;;;5041868;28;20021;-69
2023/08/12 12:18:38;;;;;;;1.95;1.52;;;;;;;;;;5052916;28;20032;-70
2023/08/12 12:21:03;;;;;;;2.92;1.33;;;;;;;;;;5048795;28;20131;-70
2023/08/12 12:23:30;;;;;;;5.60;1.58;;;;;;;;;;5044156;28;20068;-70
2023/08/12 12:26:00;;;;;;;3.28;1.80;;;;;;;;;;5046511;28;20075;-69
2023/08/12 12:28:25;;;;;;;4.65;1.80;;;;;;;;;;5047937;28;20035;-69
2023/08/12 12:30:51;;;;;;;3.97;1.73;;;;;;;;;;5045491;28;20044;-70
2023/08/12 12:33:16;;;;;;;4.00;1.85;;;;;;;;;;5045689;28;20099;-70
2023/08/12 12:35:41;;;;;;;4.60;1.60;;;;;;;;;;5042073;28;20928;-69
2023/08/12 12:38:07;;;;;;;6.75;1.90;;;;;;;;;;5046372;28;20072;-69
2023/08/12 12:40:32;;;;;;;1.70;1.40;;;;;;;;;;5031890;28;20033;-69
2023/08/12 12:42:58;;;;;;;4.32;1.23;;;;;;;;;;5045462;28;20331;-68
2023/08/12 12:45:25;;;;;;;3.30;1.70;;;;;;;;;;5044545;28;20032;-69
2023/08/12 12:47:50;;;;;;;5.10;1.60;;;;;;;;;;5044724;28;20040;-69
2023/08/12 12:50:16;;;;;;;5.45;1.40;;;;;;;;;;5043597;28;20033;-68
2023/08/12 12:52:42;;;;;;;4.50;1.60;;;;;;;;;;5036804;28;20865;-69
2023/08/12 12:55:08;;;;;;;4.45;1.40;;;;;;;;;;5033337;28;20033;-69
2023/08/12 12:57:34;;;;;;;4.70;1.45;;;;;;;;;;5024125;28;20021;-69
2023/08/12 13:00:00;;;;;;;3.80;1.50;;;;;;;;;;5025391;28;20138;-69
2023/08/12 13:02:26;;;;;;;5.40;1.75;;;;;;;;;;5025721;28;20110;-69
2023/08/12 13:04:52;;;;;;;3.88;1.40;;;;;;;;;;5020898;28;20045;-70
2023/08/12 13:07:18;;;;;;;3.55;1.65;;;;;;;;;;5025859;28;20439;-70
2023/08/12 13:09:44;;;;;;;4.28;1.40;;;;;;;;;;5027141;28;20533;-69
2023/08/12 13:12:09;;;;;;;2.78;1.40;;;;;;;;;;5039071;28;20033;-67
2023/08/12 13:14:34;;;;;;;2.30;1.45;;;;;;;;;;5031418;28;20526;-69
2023/08/12 13:17:00;;;;;;;6.35;1.30;;;;;;;;;;5025722;28;20057;-68
2023/08/12 13:19:25;;;;;;;3.28;1.75;;;;;;;;;;5018671;28;20061;-68
2023/08/12 13:21:50;;;;;;;5.13;1.33;;;;;;;;;;5036379;28;20022;-68
2023/08/12 13:24:16;;;;;;;2.00;1.30;;;;;;;;;;5025427;28;20037;-68
2023/08/12 13:26:41;;;;;;;3.95;1.40;;;;;;;;;;5014206;28;20042;-68
2023/08/12 13:29:07;;;;;;;5.93;1.30;;;;;;;;;;5017504;28;20049;-69
2023/08/12 13:31:33;;;;;;;3.10;1.30;;;;;;;;;;5020628;28;20045;-69
2023/08/12 13:33:58;;;;;;;5.03;1.52;;;;;;;;;;5037184;28;20116;-69
2023/08/12 13:36:23;;;;;;;4.93;1.60;;;;;;;;;;5026599;28;20040;-69
2023/08/12 13:38:49;;;;;;;6.70;1.85;;;;;;;;;;5017915;28;20094;-68
2023/08/12 13:41:16;;;;;;;3.72;1.67;;;;;;;;;;5017877;28;20075;-69
2023/08/12 13:43:41;;;;;;;2.75;1.60;;;;;;;;;;5023527;28;20030;-69
2023/08/12 13:46:06;;;;;;;3.78;1.35;;;;;;;;;;5026767;28;20025;-70
2023/08/12 13:48:32;;;;;;;2.72;1.38;;;;;;;;;;5027426;28;20026;-70
2023/08/12 13:50:57;;;;;;;4.20;1.60;;;;;;;;;;5044211;28;20528;-71
2023/08/12 13:53:23;;;;;;;4.40;1.38;;;;;;;;;;5044307;28;20040;-70
2023/08/12 13:55:49;;;;;;;3.95;1.40;;;;;;;;;;5046236;28;20043;-70
2023/08/12 13:58:15;;;;;;;3.63;1.60;;;;;;;;;;5038735;28;20128;-69
2023/08/12 14:00:40;;;;;;;2.83;1.48;;;;;;;;;;5020106;28;20499;-69
2023/08/12 14:03:05;;;;;;;2.70;1.42;;;;;;;;;;5019936;28;20030;-69
2023/08/12 14:05:31;;;;;;;4.00;1.42;;;;;;;;;;5026135;28;20045;-69
2023/08/12 14:07:56;;;;;;;4.05;1.33;;;;;;;;;;5035957;28;20036;-69
2023/08/12 14:10:21;;;;;;;4.45;1.52;;;;;;;;;;5040082;28;20021;-69
2023/08/12 14:12:48;;;;;;;3.60;1.35;;;;;;;;;;5025881;28;20793;-69
2023/08/12 14:15:14;;;;;;;4.35;2.10;;;;;;;;;;5021768;28;20025;-69
2023/08/12 14:17:39;;;;;;;2.63;1.25;;;;;;;;;;5023512;28;20045;-70
2023/08/12 14:20:07;;;;;;;8.85;2.47;;;;;;;;;;5019473;28;20042;-70
2023/08/12 14:22:34;;;;;;;4.05;2.10;;;;;;;;;;5016221;28;20045;-70
2023/08/12 14:24:59;;;;;;;4.97;1.70;;;;;;;;;;5021961;28;20025;-71
2023/08/12 14:27:24;;;;;;;4.78;1.85;;;;;;;;;;5046398;28;20775;-71
2023/08/12 14:29:50;;;;;;;3.70;1.73;;;;;;;;;;5045419;28;20131;-71
2023/08/12 14:32:16;;;;;;;6.55;1.67;;;;;;;;;;5045437;28;20036;-71
2023/08/12 14:34:45;;;;;;;5.22;2.03;;;;;;;;;;5044738;28;20033;-71